sensor_id;sensor_type;location;lat;lon;timestamp;pressure;altitude;pressure_sealevel;temperature;humidity
13604;BME280;24578;48.264;11.436;2022-10-31T00:02:31;96614.09;;;7.97;100.00
13604;BME280;24578;48.264;11.436;2022-10-31T00:05:32;96617.41;;;7.99;100.00
13604;BME280;24578;48.264;11.436;2022-10-31T00:08:32;96616.66;;;7.97;100.00
13604;BME280;24578;48.264;11.436;2022-10-31T00:11:32;96610.75;;;7.95;100.00
13604;BME280;24578;48.264;11.436;2022-10-31T00:14:32;96615.16;;;7.92;100.00
13604;BME280;24578;48.264;11.436;2022-10-31T00:17:34;96610.16;;;7.89;100.00
13604;BME280;24578;48.264;11.436;2022-10-31T00:20:34;96612.00;;;7.87;100.00
13604;BME280;24578;48.264;11.436;2022-10-31T00:23:34;96606.94;;;7.86;100.00
13604;BME280;24578;48.264;11.436;2022-10-31T00:26:35;96612.09;;;7.86;100.00
13604;BME280;24578;48.264;11.436;2022-10-31T00:29:35;96615.50;;;7.86;100.00
13604;BME280;24578;48.264;11.436;2022-10-31T00:32:35;96615.41;;;7.88;100.00
13604;BME280;24578;48.264;11.436;2022-10-31T00:35:35;96611.09;;;7.88;100.00
13604;BME280;24578;48.264;11.436;2022-10-31T00:38:35;96612.59;;;7.92;100.00
13604;BME280;24578;48.264;11.436;2022-10-31T00:41:36;96621.06;;;7.95;100.00
13604;BME280;24578;48.264;11.436;2022-10-31T00:44:36;96618.59;;;7.93;100.00
13604;BME280;24578;48.264;11.436;2022-10-31T00:47:36;96621.22;;;7.91;100.00
13604;BME280;24578;48.264;11.436;2022-10-31T00:50:37;96611.03;;;7.90;100.00
13604;BME280;24578;48.264;11.436;2022-10-31T00:53:37;96611.94;;;7.89;100.00
13604;BME280;24578;48.264;11.436;2022-10-31T00:56:37;96616.25;;;7.88;100.00
13604;BME280;24578;48.264;11.436;2022-10-31T00:59:37;96611.09;;;7.88;100.00
13604;BME280;24578;48.264;11.436;2022-10-31T01:02:38;96612.84;;;7.88;100.00
13604;BME280;24578;48.264;11.436;2022-10-31T01:05:38;96612.09;;;7.86;100.00
13604;BME280;24578;48.264;11.436;2022-10-31T01:08:38;96619.66;;;7.89;100.00
13604;BME280;24578;48.264;11.436;2022-10-31T01:11:39;96621.38;;;7.88;100.00
13604;BME280;24578;48.264;11.436;2022-10-31T01:14:42;96608.50;;;7.88;100.00
13604;BME280;24578;48.264;11.436;2022-10-31T01:17:42;96607.69;;;7.88;100.00
13604;BME280;24578;48.264;11.436;2022-10-31T01:20:43;96608.44;;;7.90;100.00
13604;BME280;24578;48.264;11.436;2022-10-31T01:23:43;96608.59;;;7.87;100.00
13604;BME280;24578;48.264;11.436;2022-10-31T01:26:43;96613.09;;;7.83;100.00
13604;BME280;24578;48.264;11.436;2022-10-31T01:29:44;96615.75;;;7.82;100.00
13604;BME280;24578;48.264;11.436;2022-10-31T01:32:44;96605.59;;;7.78;100.00
13604;BME280;24578;48.264;11.436;2022-10-31T01:35:44;96609.13;;;7.77;100.00
13604;BME280;24578;48.264;11.436;2022-10-31T01:38:45;96604.88;;;7.76;100.00
13604;BME280;24578;48.264;11.436;2022-10-31T01:41:50;96599.88;;;7.73;100.00
13604;BME280;24578;48.264;11.436;2022-10-31T01:44:52;96606.03;;;7.71;100.00
13604;BME280;24578;48.264;11.436;2022-10-31T01:47:52;96609.53;;;7.70;100.00
13604;BME280;24578;48.264;11.436;2022-10-31T01:50:53;96602.53;;;7.72;100.00
13604;BME280;24578;48.264;11.436;2022-10-31T01:53:55;96601.81;;;7.70;100.00
13604;BME280;24578;48.264;11.436;2022-10-31T01:56:58;96607.78;;;7.70;100.00
13604;BME280;24578;48.264;11.436;2022-10-31T02:00:06;96597.47;;;7.70;100.00
13604;BME280;24578;48.264;11.436;2022-10-31T02:03:07;96599.31;;;7.68;100.00
13604;BME280;24578;48.264;11.436;2022-10-31T02:06:08;96599.41;;;7.67;100.00
13604;BME280;24578;48.264;11.436;2022-10-31T02:09:13;96608.94;;;7.65;100.00
13604;BME280;24578;48.264;11.436;2022-10-31T02:12:14;96608.19;;;7.62;100.00
13604;BME280;24578;48.264;11.436;2022-10-31T02:15:15;96609.88;;;7.64;100.00
13604;BME280;24578;48.264;11.436;2022-10-31T02:18:15;96601.22;;;7.65;100.00
13604;BME280;24578;48.264;11.436;2022-10-31T02:21:23;96599.47;;;7.65;100.00
13604;BME280;24578;48.264;11.436;2022-10-31T02:24:35;96600.38;;;7.64;100.00
13604;BME280;24578;48.264;11.436;2022-10-31T02:33:56;96594.09;;;7.70;100.00
13604;BME280;24578;48.264;11.436;2022-10-31T02:36:58;96597.47;;;7.70;100.00
13604;BME280;24578;48.264;11.436;2022-10-31T02:43:20;96604.94;;;7.75;100.00
13604;BME280;24578;48.264;11.436;2022-10-31T02:49:29;96614.44;;;7.74;100.00
13604;BME280;24578;48.264;11.436;2022-10-31T02:58:36;96607.44;;;7.60;100.00
13604;BME280;24578;48.264;11.436;2022-10-31T03:01:50;96604.28;;;7.55;100.00
13604;BME280;24578;48.264;11.436;2022-10-31T03:05:18;96605.44;;;7.50;100.00
13604;BME280;24578;48.264;11.436;2022-10-31T03:11:13;96603.47;;;7.39;100.00
13604;BME280;24578;48.264;11.436;2022-10-31T03:14:18;96614.75;;;7.36;100.00
13604;BME280;24578;48.264;11.436;2022-10-31T03:17:26;96608.03;;;7.34;100.00
13604;BME280;24578;48.264;11.436;2022-10-31T03:20:34;96608.94;;;7.32;100.00
13604;BME280;24578;48.264;11.436;2022-10-31T03:23:36;96621.72;;;7.34;100.00
13604;BME280;24578;48.264;11.436;2022-10-31T03:26:38;96614.00;;;7.34;100.00
13604;BME280;24578;48.264;11.436;2022-10-31T03:29:41;96615.09;;;7.30;100.00
13604;BME280;24578;48.264;11.436;2022-10-31T03:32:44;96622.97;;;7.27;100.00
13604;BME280;24578;48.264;11.436;2022-10-31T03:35:48;96612.03;;;7.23;100.00
13604;BME280;24578;48.264;11.436;2022-10-31T03:38:50;96614.91;;;7.17;100.00
13604;BME280;24578;48.264;11.436;2022-10-31T03:41:59;96616.88;;;7.12;100.00
13604;BME280;24578;48.264;11.436;2022-10-31T03:45:12;96615.56;;;7.05;100.00
13604;BME280;24578;48.264;11.436;2022-10-31T03:48:13;96608.13;;;6.98;100.00
13604;BME280;24578;48.264;11.436;2022-10-31T03:57:51;96621.03;;;6.81;100.00
13604;BME280;24578;48.264;11.436;2022-10-31T04:00:54;96620.28;;;6.79;100.00
13604;BME280;24578;48.264;11.436;2022-10-31T04:03:55;96624.69;;;6.77;100.00
13604;BME280;24578;48.264;11.436;2022-10-31T04:06:56;96610.16;;;6.76;100.00
13604;BME280;24578;48.264;11.436;2022-10-31T04:09:58;96619.69;;;6.74;100.00
13604;BME280;24578;48.264;11.436;2022-10-31T04:13:05;96613.66;;;6.75;100.00
13604;BME280;24578;48.264;11.436;2022-10-31T04:16:07;96617.13;;;6.74;100.00
13604;BME280;24578;48.264;11.436;2022-10-31T04:19:08;96617.13;;;6.74;100.00
13604;BME280;24578;48.264;11.436;2022-10-31T04:22:08;96618.78;;;6.75;100.00
13604;BME280;24578;48.264;11.436;2022-10-31T04:25:08;96622.28;;;6.74;100.00
13604;BME280;24578;48.264;11.436;2022-10-31T04:28:08;96616.38;;;6.72;100.00
13604;BME280;24578;48.264;11.436;2022-10-31T04:31:09;96624.22;;;6.68;100.00
13604;BME280;24578;48.264;11.436;2022-10-31T04:34:10;96615.75;;;6.66;100.00
13604;BME280;24578;48.264;11.436;2022-10-31T04:37:11;96624.53;;;6.62;100.00
13604;BME280;24578;48.264;11.436;2022-10-31T04:40:11;96619.47;;;6.61;100.00
13604;BME280;24578;48.264;11.436;2022-10-31T04:43:11;96627.44;;;6.56;100.00
13604;BME280;24578;48.264;11.436;2022-10-31T04:46:11;96625.91;;;6.52;100.00
13604;BME280;24578;48.264;11.436;2022-10-31T04:49:11;96610.72;;;6.47;100.00
13604;BME280;24578;48.264;11.436;2022-10-31T04:52:12;96614.34;;;6.43;100.00
13604;BME280;24578;48.264;11.436;2022-10-31T04:55:12;96617.13;;;6.38;100.00
13604;BME280;24578;48.264;11.436;2022-10-31T04:58:13;96617.38;;;6.34;100.00
13604;BME280;24578;48.264;11.436;2022-10-31T05:01:13;96613.28;;;6.30;100.00
13604;BME280;24578;48.264;11.436;2022-10-31T05:04:14;96611.75;;;6.25;100.00
13604;BME280;24578;48.264;11.436;2022-10-31T05:07:14;96609.41;;;6.21;100.00
13604;BME280;24578;48.264;11.436;2022-10-31T05:10:15;96614.69;;;6.18;100.00
13604;BME280;24578;48.264;11.436;2022-10-31T05:13:16;96619.16;;;6.14;100.00
13604;BME280;24578;48.264;11.436;2022-10-31T05:16:16;96610.03;;;6.08;100.00
13604;BME280;24578;48.264;11.436;2022-10-31T05:19:16;96602.44;;;6.05;100.00
13604;BME280;24578;48.264;11.436;2022-10-31T05:22:16;96604.34;;;6.02;100.00
13604;BME280;24578;48.264;11.436;2022-10-31T05:25:17;96599.31;;;5.99;100.00
13604;BME280;24578;48.264;11.436;2022-10-31T05:28:18;96612.25;;;5.97;100.00
13604;BME280;24578;48.264;11.436;2022-10-31T05:31:18;96605.59;;;5.93;100.00
13604;BME280;24578;48.264;11.436;2022-10-31T05:34:19;96609.13;;;5.90;100.00
13604;BME280;24578;48.264;11.436;2022-10-31T05:37:20;96612.66;;;5.88;100.00
13604;BME280;24578;48.264;11.436;2022-10-31T05:40:21;96606.03;;;5.84;100.00
13604;BME280;24578;48.264;11.436;2022-10-31T05:43:21;96609.56;;;5.81;100.00
13604;BME280;24578;48.264;11.436;2022-10-31T05:46:22;96604.56;;;5.78;100.00
13604;BME280;24578;48.264;11.436;2022-10-31T05:49:22;96601.16;;;5.77;100.00
13604;BME280;24578;48.264;11.436;2022-10-31T05:52:22;96601.16;;;5.77;100.00
13604;BME280;24578;48.264;11.436;2022-10-31T05:55:23;96605.41;;;5.78;100.00
13604;BME280;24578;48.264;11.436;2022-10-31T05:58:23;96591.81;;;5.76;100.00
13604;BME280;24578;48.264;11.436;2022-10-31T06:01:23;96607.13;;;5.78;100.00
13604;BME280;24578;48.264;11.436;2022-10-31T06:04:23;96608.75;;;5.81;100.00
13604;BME280;24578;48.264;11.436;2022-10-31T06:07:24;96606.94;;;5.83;100.00
13604;BME280;24578;48.264;11.436;2022-10-31T06:10:24;96614.47;;;5.86;100.00
13604;BME280;24578;48.264;11.436;2022-10-31T06:13:24;96619.47;;;5.89;100.00
13604;BME280;24578;48.264;11.436;2022-10-31T06:16:24;96615.84;;;5.93;100.00
13604;BME280;24578;48.264;11.436;2022-10-31T06:19:24;96609.69;;;5.97;100.00
13604;BME280;24578;48.264;11.436;2022-10-31T06:22:25;96618.00;;;6.02;100.00
13604;BME280;24578;48.264;11.436;2022-10-31T06:25:25;96619.41;;;6.09;100.00
13604;BME280;24578;48.264;11.436;2022-10-31T06:28:25;96618.19;;;6.17;100.00
13604;BME280;24578;48.264;11.436;2022-10-31T06:31:26;96618.66;;;6.25;100.00
13604;BME280;24578;48.264;11.436;2022-10-31T06:34:26;96621.66;;;6.33;100.00
13604;BME280;24578;48.264;11.436;2022-10-31T06:37:26;96613.53;;;6.43;100.00
13604;BME280;24578;48.264;11.436;2022-10-31T06:40:26;96612.13;;;6.53;100.00
13604;BME280;24578;48.264;11.436;2022-10-31T06:43:27;96612.50;;;6.63;100.00
13604;BME280;24578;48.264;11.436;2022-10-31T06:46:27;96616.44;;;6.70;100.00
13604;BME280;24578;48.264;11.436;2022-10-31T06:49:27;96611.66;;;6.80;100.00
13604;BME280;24578;48.264;11.436;2022-10-31T06:52:27;96611.03;;;6.92;100.00
13604;BME280;24578;48.264;11.436;2022-10-31T06:55:27;96617.78;;;7.11;100.00
13604;BME280;24578;48.264;11.436;2022-10-31T06:58:28;96615.25;;;7.27;100.00
13604;BME280;24578;48.264;11.436;2022-10-31T07:01:28;96617.81;;;7.43;100.00
13604;BME280;24578;48.264;11.436;2022-10-31T07:04:28;96615.94;;;7.62;100.00
13604;BME280;24578;48.264;11.436;2022-10-31T07:07:28;96608.88;;;7.82;100.00
13604;BME280;24578;48.264;11.436;2022-10-31T07:10:30;96610.72;;;8.11;100.00
13604;BME280;24578;48.264;11.436;2022-10-31T07:13:30;96601.97;;;8.60;100.00
13604;BME280;24578;48.264;11.436;2022-10-31T07:16:31;96608.63;;;8.93;100.00
13604;BME280;24578;48.264;11.436;2022-10-31T07:19:31;96609.16;;;9.12;100.00
13604;BME280;24578;48.264;11.436;2022-10-31T07:22:32;96613.84;;;9.35;100.00
13604;BME280;24578;48.264;11.436;2022-10-31T07:25:32;96606.44;;;9.57;100.00
13604;BME280;24578;48.264;11.436;2022-10-31T07:28:32;96612.38;;;9.87;100.00
13604;BME280;24578;48.264;11.436;2022-10-31T07:31:32;96608.75;;;10.17;100.00
13604;BME280;24578;48.264;11.436;2022-10-31T07:34:33;96606.47;;;10.53;100.00
13604;BME280;24578;48.264;11.436;2022-10-31T07:37:33;96605.25;;;10.84;100.00
13604;BME280;24578;48.264;11.436;2022-10-31T07:40:33;96602.13;;;11.18;100.00
13604;BME280;24578;48.264;11.436;2022-10-31T07:43:34;96601.13;;;11.57;100.00
13604;BME280;24578;48.264;11.436;2022-10-31T07:46:34;96603.44;;;12.11;100.00
13604;BME280;24578;48.264;11.436;2022-10-31T07:49:34;96598.59;;;14.34;100.00
13604;BME280;24578;48.264;11.436;2022-10-31T07:52:35;96591.53;;;17.17;97.80
13604;BME280;24578;48.264;11.436;2022-10-31T07:55:36;96586.72;;;19.29;87.58
13604;BME280;24578;48.264;11.436;2022-10-31T07:58:37;96575.22;;;21.22;77.97
13604;BME280;24578;48.264;11.436;2022-10-31T08:01:37;96570.47;;;22.35;65.17
13604;BME280;24578;48.264;11.436;2022-10-31T08:04:37;96576.34;;;22.84;59.97
13604;BME280;24578;48.264;11.436;2022-10-31T08:07:37;96560.97;;;23.99;60.34
13604;BME280;24578;48.264;11.436;2022-10-31T08:10:37;96564.38;;;24.65;49.22
13604;BME280;24578;48.264;11.436;2022-10-31T08:13:39;96553.72;;;25.15;47.37
13604;BME280;24578;48.264;11.436;2022-10-31T08:16:40;96543.72;;;25.52;43.73
13604;BME280;24578;48.264;11.436;2022-10-31T08:19:40;96543.91;;;26.26;40.99
13604;BME280;24578;48.264;11.436;2022-10-31T08:26:03;96538.22;;;27.56;37.88
13604;BME280;24578;48.264;11.436;2022-10-31T08:29:06;96531.88;;;27.89;36.24
13604;BME280;24578;48.264;11.436;2022-10-31T08:32:06;96534.72;;;27.55;36.40
13604;BME280;24578;48.264;11.436;2022-10-31T08:35:06;96534.06;;;27.99;34.83
13604;BME280;24578;48.264;11.436;2022-10-31T08:38:08;96529.78;;;28.30;34.97
13604;BME280;24578;48.264;11.436;2022-10-31T08:41:08;96515.28;;;28.51;34.38
13604;BME280;24578;48.264;11.436;2022-10-31T08:44:09;96510.56;;;28.97;34.18
13604;BME280;24578;48.264;11.436;2022-10-31T08:47:09;96512.63;;;28.51;35.55
13604;BME280;24578;48.264;11.436;2022-10-31T08:50:09;96508.06;;;28.83;34.28
13604;BME280;24578;48.264;11.436;2022-10-31T08:53:18;96497.59;;;28.82;34.34
13604;BME280;24578;48.264;11.436;2022-10-31T08:56:18;96497.69;;;28.94;34.18
13604;BME280;24578;48.264;11.436;2022-10-31T08:59:19;96490.88;;;28.79;35.17
13604;BME280;24578;48.264;11.436;2022-10-31T09:02:19;96492.59;;;27.91;36.47
13604;BME280;24578;48.264;11.436;2022-10-31T09:05:19;96485.75;;;28.02;36.27
13604;BME280;24578;48.264;11.436;2022-10-31T09:08:19;96492.91;;;27.76;36.61
13604;BME280;24578;48.264;11.436;2022-10-31T09:11:19;96489.81;;;27.33;37.93
13604;BME280;24578;48.264;11.436;2022-10-31T09:14:20;96484.41;;;27.60;38.15
13604;BME280;24578;48.264;11.436;2022-10-31T09:17:20;96485.69;;;26.92;39.45
13604;BME280;24578;48.264;11.436;2022-10-31T09:20:20;96483.44;;;26.89;39.30
13604;BME280;24578;48.264;11.436;2022-10-31T09:23:22;96476.34;;;26.69;40.01
13604;BME280;24578;48.264;11.436;2022-10-31T09:26:22;96477.75;;;25.98;42.82
13604;BME280;24578;48.264;11.436;2022-10-31T09:29:23;96470.78;;;25.57;43.90
13604;BME280;24578;48.264;11.436;2022-10-31T09:32:23;96471.22;;;25.18;45.66
13604;BME280;24578;48.264;11.436;2022-10-31T09:35:23;96465.50;;;25.08;45.87
13604;BME280;24578;48.264;11.436;2022-10-31T09:38:24;96472.22;;;25.11;45.12
13604;BME280;24578;48.264;11.436;2022-10-31T09:41:44;96476.53;;;24.76;47.07
13604;BME280;24578;48.264;11.436;2022-10-31T09:44:50;96476.78;;;24.82;46.10
13604;BME280;24578;48.264;11.436;2022-10-31T09:48:01;96464.13;;;24.77;46.61
13604;BME280;24578;48.264;11.436;2022-10-31T09:51:07;96473.13;;;24.83;45.97
13604;BME280;24578;48.264;11.436;2022-10-31T09:54:14;96471.59;;;24.38;46.76
13604;BME280;24578;48.264;11.436;2022-10-31T09:57:17;96467.22;;;24.24;48.11
13604;BME280;24578;48.264;11.436;2022-10-31T10:00:20;96464.28;;;23.68;49.62
13604;BME280;24578;48.264;11.436;2022-10-31T10:06:28;96465.56;;;23.57;50.33
13604;BME280;24578;48.264;11.436;2022-10-31T10:09:29;96460.81;;;23.31;50.34
13604;BME280;24578;48.264;11.436;2022-10-31T10:12:40;96472.78;;;22.97;52.01
13604;BME280;24578;48.264;11.436;2022-10-31T10:22:12;96462.44;;;22.80;52.17
13604;BME280;24578;48.264;11.436;2022-10-31T10:28:26;96458.53;;;22.76;53.70
13604;BME280;24578;48.264;11.436;2022-10-31T10:31:28;96455.06;;;22.61;54.42
13604;BME280;24578;48.264;11.436;2022-10-31T10:34:36;96454.22;;;22.45;56.45
13604;BME280;24578;48.264;11.436;2022-10-31T10:37:38;96442.75;;;22.68;56.81
13604;BME280;24578;48.264;11.436;2022-10-31T10:40:40;96436.38;;;23.07;56.12
13604;BME280;24578;48.264;11.436;2022-10-31T10:43:41;96435.63;;;23.14;54.47
13604;BME280;24578;48.264;11.436;2022-10-31T10:46:42;96428.63;;;23.21;54.27
13604;BME280;24578;48.264;11.436;2022-10-31T10:50:02;96429.47;;;23.43;53.87
13604;BME280;24578;48.264;11.436;2022-10-31T10:53:18;96426.47;;;23.46;53.10
13604;BME280;24578;48.264;11.436;2022-10-31T10:59:51;96412.78;;;23.06;54.54
13604;BME280;24578;48.264;11.436;2022-10-31T11:02:53;96411.81;;;22.92;55.19
13604;BME280;24578;48.264;11.436;2022-10-31T11:05:54;96419.84;;;22.69;55.32
13604;BME280;24578;48.264;11.436;2022-10-31T11:08:56;96413.69;;;22.46;57.07
13604;BME280;24578;48.264;11.436;2022-10-31T11:11:56;96414.28;;;22.33;59.22
13604;BME280;24578;48.264;11.436;2022-10-31T11:14:58;96414.25;;;22.03;59.11
13604;BME280;24578;48.264;11.436;2022-10-31T11:18:00;96407.56;;;21.78;60.80
13604;BME280;24578;48.264;11.436;2022-10-31T11:21:01;96402.34;;;21.69;61.18
13604;BME280;24578;48.264;11.436;2022-10-31T11:24:15;96400.88;;;21.67;61.87
13604;BME280;24578;48.264;11.436;2022-10-31T11:27:21;96393.53;;;21.54;61.92
13604;BME280;24578;48.264;11.436;2022-10-31T11:30:21;96389.38;;;21.59;62.25
13604;BME280;24578;48.264;11.436;2022-10-31T11:33:32;96392.63;;;21.47;63.09
13604;BME280;24578;48.264;11.436;2022-10-31T11:36:35;96381.66;;;21.58;63.22
13604;BME280;24578;48.264;11.436;2022-10-31T11:39:39;96379.69;;;21.83;61.75
13604;BME280;24578;48.264;11.436;2022-10-31T11:42:43;96373.63;;;21.98;61.26
13604;BME280;24578;48.264;11.436;2022-10-31T11:45:44;96362.34;;;22.04;60.94
13604;BME280;24578;48.264;11.436;2022-10-31T11:48:48;96359.63;;;22.12;60.42
13604;BME280;24578;48.264;11.436;2022-10-31T11:51:51;96359.47;;;22.29;59.19
13604;BME280;24578;48.264;11.436;2022-10-31T11:55:36;96351.44;;;22.37;58.41
13604;BME280;24578;48.264;11.436;2022-10-31T11:58:24;96337.25;;;22.68;58.25
13604;BME280;24578;48.264;11.436;2022-10-31T12:01:27;96338.56;;;22.57;57.30
13604;BME280;24578;48.264;11.436;2022-10-31T12:04:39;96338.19;;;22.60;58.49
13604;BME280;24578;48.264;11.436;2022-10-31T12:07:40;96338.81;;;22.62;58.04
13604;BME280;24578;48.264;11.436;2022-10-31T12:17:19;96362.00;;;22.22;57.72
13604;BME280;24578;48.264;11.436;2022-10-31T12:33:08;96341.88;;;21.29;62.06
13604;BME280;24578;48.264;11.436;2022-10-31T12:48:59;96307.38;;;21.86;61.27
13604;BME280;24578;48.264;11.436;2022-10-31T12:52:15;96309.66;;;22.19;59.76
13604;BME280;24578;48.264;11.436;2022-10-31T12:58:43;96285.91;;;22.34;56.57
13604;BME280;24578;48.264;11.436;2022-10-31T13:02:10;96283.47;;;22.47;57.20
13604;BME280;24578;48.264;11.436;2022-10-31T13:12:02;96275.88;;;22.96;55.00
13604;BME280;24578;48.264;11.436;2022-10-31T13:15:05;96272.84;;;22.77;55.86
13604;BME280;24578;48.264;11.436;2022-10-31T13:18:14;96269.16;;;22.57;56.11
13604;BME280;24578;48.264;11.436;2022-10-31T13:21:23;96270.56;;;22.23;57.28
13604;BME280;24578;48.264;11.436;2022-10-31T13:25:10;96269.75;;;21.92;58.39
13604;BME280;24578;48.264;11.436;2022-10-31T13:27:48;96271.53;;;21.62;60.50
13604;BME280;24578;48.264;11.436;2022-10-31T13:30:50;96271.16;;;21.26;61.71
13604;BME280;24578;48.264;11.436;2022-10-31T13:33:53;96269.44;;;20.95;63.79
13604;BME280;24578;48.264;11.436;2022-10-31T13:36:59;96264.53;;;20.61;65.88
13604;BME280;24578;48.264;11.436;2022-10-31T13:43:18;96262.00;;;20.04;69.13
13604;BME280;24578;48.264;11.436;2022-10-31T13:46:24;96265.66;;;19.87;71.08
13604;BME280;24578;48.264;11.436;2022-10-31T13:52:28;96256.69;;;19.48;75.56
13604;BME280;24578;48.264;11.436;2022-10-31T13:55:43;96260.84;;;19.34;77.73
13604;BME280;24578;48.264;11.436;2022-10-31T14:01:57;96254.09;;;19.07;80.16
13604;BME280;24578;48.264;11.436;2022-10-31T14:05:00;96257.34;;;18.92;82.47
13604;BME280;24578;48.264;11.436;2022-10-31T14:08:02;96257.00;;;18.87;83.61
13604;BME280;24578;48.264;11.436;2022-10-31T14:11:03;96246.41;;;18.97;84.25
13604;BME280;24578;48.264;11.436;2022-10-31T14:14:08;96236.75;;;18.97;85.33
13604;BME280;24578;48.264;11.436;2022-10-31T14:17:19;96235.72;;;18.90;86.86
13604;BME280;24578;48.264;11.436;2022-10-31T14:23:37;96230.47;;;18.65;89.47
13604;BME280;24578;48.264;11.436;2022-10-31T14:26:39;96228.28;;;18.52;90.71
13604;BME280;24578;48.264;11.436;2022-10-31T14:29:50;96227.16;;;18.47;91.66
13604;BME280;24578;48.264;11.436;2022-10-31T14:32:52;96231.06;;;18.42;92.39
13604;BME280;24578;48.264;11.436;2022-10-31T14:51:41;96214.03;;;17.95;99.08
13604;BME280;24578;48.264;11.436;2022-10-31T14:54:45;96211.03;;;17.82;100.00
13604;BME280;24578;48.264;11.436;2022-10-31T14:57:50;96212.13;;;17.71;100.00
13604;BME280;24578;48.264;11.436;2022-10-31T15:00:54;96209.63;;;17.61;100.00
13604;BME280;24578;48.264;11.436;2022-10-31T15:03:57;96202.69;;;17.52;100.00
13604;BME280;24578;48.264;11.436;2022-10-31T15:07:15;96200.34;;;17.41;100.00
13604;BME280;24578;48.264;11.436;2022-10-31T15:10:21;96200.97;;;17.34;100.00
13604;BME280;24578;48.264;11.436;2022-10-31T15:13:22;96203.38;;;17.28;100.00
13604;BME280;24578;48.264;11.436;2022-10-31T15:16:24;96195.69;;;17.26;100.00
13604;BME280;24578;48.264;11.436;2022-10-31T15:19:25;96200.41;;;17.23;100.00
13604;BME280;24578;48.264;11.436;2022-10-31T15:22:26;96197.41;;;17.17;100.00
13604;BME280;24578;48.264;11.436;2022-10-31T15:25:30;96192.13;;;17.09;100.00
13604;BME280;24578;48.264;11.436;2022-10-31T15:28:32;96187.00;;;16.99;100.00
13604;BME280;24578;48.264;11.436;2022-10-31T15:31:32;96185.13;;;16.92;100.00
13604;BME280;24578;48.264;11.436;2022-10-31T15:34:37;96192.75;;;16.85;100.00
13604;BME280;24578;48.264;11.436;2022-10-31T15:37:38;96187.59;;;16.75;100.00
13604;BME280;24578;48.264;11.436;2022-10-31T15:40:38;96184.56;;;16.62;100.00
13604;BME280;24578;48.264;11.436;2022-10-31T15:43:38;96189.16;;;16.50;100.00
13604;BME280;24578;48.264;11.436;2022-10-31T15:46:39;96191.03;;;16.39;100.00
13604;BME280;24578;48.264;11.436;2022-10-31T15:49:41;96182.31;;;16.31;100.00
13604;BME280;24578;48.264;11.436;2022-10-31T15:52:46;96185.78;;;16.21;100.00
13604;BME280;24578;48.264;11.436;2022-10-31T15:55:54;96183.25;;;16.11;100.00
13604;BME280;24578;48.264;11.436;2022-10-31T15:58:55;96185.09;;;16.01;100.00
13604;BME280;24578;48.264;11.436;2022-10-31T16:02:03;96180.06;;;15.90;100.00
13604;BME280;24578;48.264;11.436;2022-10-31T16:05:14;96178.88;;;15.74;100.00
13604;BME280;24578;48.264;11.436;2022-10-31T16:14:31;96189.75;;;15.32;100.00
13604;BME280;24578;48.264;11.436;2022-10-31T16:17:33;96183.19;;;15.18;100.00
13604;BME280;24578;48.264;11.436;2022-10-31T16:20:33;96183.63;;;15.03;100.00
13604;BME280;24578;48.264;11.436;2022-10-31T16:23:34;96197.91;;;14.89;100.00
13604;BME280;24578;48.264;11.436;2022-10-31T16:26:35;96192.31;;;14.74;100.00
13604;BME280;24578;48.264;11.436;2022-10-31T16:29:38;96187.59;;;14.58;100.00
13604;BME280;24578;48.264;11.436;2022-10-31T16:32:54;96191.47;;;14.44;100.00
13604;BME280;24578;48.264;11.436;2022-10-31T16:35:56;96197.75;;;14.32;100.00
13604;BME280;24578;48.264;11.436;2022-10-31T16:38:56;96189.50;;;14.17;100.00
13604;BME280;24578;48.264;11.436;2022-10-31T16:41:57;96191.53;;;14.04;100.00
13604;BME280;24578;48.264;11.436;2022-10-31T16:44:57;96198.50;;;13.93;100.00
13604;BME280;24578;48.264;11.436;2022-10-31T16:48:02;96191.72;;;13.81;100.00
13604;BME280;24578;48.264;11.436;2022-10-31T16:51:07;96206.50;;;13.70;100.00
13604;BME280;24578;48.264;11.436;2022-10-31T16:54:07;96197.00;;;13.60;100.00
13604;BME280;24578;48.264;11.436;2022-10-31T16:57:14;96204.19;;;13.46;100.00
13604;BME280;24578;48.264;11.436;2022-10-31T17:00:16;96203.41;;;13.34;100.00
13604;BME280;24578;48.264;11.436;2022-10-31T17:03:17;96205.97;;;13.24;100.00
13604;BME280;24578;48.264;11.436;2022-10-31T17:06:17;96213.72;;;13.15;100.00
13604;BME280;24578;48.264;11.436;2022-10-31T17:09:18;96207.50;;;13.06;100.00
13604;BME280;24578;48.264;11.436;2022-10-31T17:12:18;96211.00;;;12.95;100.00
13604;BME280;24578;48.264;11.436;2022-10-31T17:15:24;96218.00;;;12.83;100.00
13604;BME280;24578;48.264;11.436;2022-10-31T17:18:24;96213.69;;;12.72;100.00
13604;BME280;24578;48.264;11.436;2022-10-31T17:21:25;96221.28;;;12.64;100.00
13604;BME280;24578;48.264;11.436;2022-10-31T17:24:26;96220.34;;;12.54;100.00
13604;BME280;24578;48.264;11.436;2022-10-31T17:27:27;96212.50;;;12.44;100.00
13604;BME280;24578;48.264;11.436;2022-10-31T17:30:27;96208.88;;;12.35;100.00
13604;BME280;24578;48.264;11.436;2022-10-31T17:33:27;96207.84;;;12.26;100.00
13604;BME280;24578;48.264;11.436;2022-10-31T17:36:27;96208.69;;;12.15;100.00
13604;BME280;24578;48.264;11.436;2022-10-31T17:39:28;96209.44;;;12.06;100.00
13604;BME280;24578;48.264;11.436;2022-10-31T17:42:28;96214.34;;;11.98;100.00
13604;BME280;24578;48.264;11.436;2022-10-31T17:45:28;96198.56;;;11.90;100.00
13604;BME280;24578;48.264;11.436;2022-10-31T17:48:28;96201.59;;;11.95;100.00
13604;BME280;24578;48.264;11.436;2022-10-31T17:51:29;96203.75;;;11.90;100.00
13604;BME280;24578;48.264;11.436;2022-10-31T17:54:29;96198.91;;;11.85;100.00
13604;BME280;24578;48.264;11.436;2022-10-31T17:57:34;96196.81;;;11.79;100.00